Morehead City, NC (28557)

9:26 PM EDT on August 20, 2014 (GMT -0400)
MoreheadCityWeather.Com | Change Station
CLOSE
Current Station
Personal Weather Station
Location: Morehead City, NC
Elevation: 10 ft
Nearby Weather Stations

Elev 10 ft 34.73 °N, 76.75 °W | Updated 11 minutes ago

Clear
Clear
78.3 °F
Feels Like 81 °F
N
0.0
Wind Variable Wind from SSE

Today
High -- | Low -- °F
--% Chance of Precip.
Yesterday
High -- | Low -- °F
Precip. -- in
6:31 AM 7:49 PM
Waning Crescent, 18% visible
Pressure 30.00 in
Visibility 10.0 miles
Clouds Clear
Heat Index 81 °F
Dew Point 73 °F
Humidity 83%
Rainfall 0.00 in
Snow Depth Not available.
UV 0 out of 12
Pollen 6.60 out of 12
Air Quality Not available.
Flu Activity Not available.
METAR KMRH 210058Z AUTO 24004KT 10SM CLR 27/24 A2999 RMK AO2 SLP157 T02720239 TSNO

More Conditions Fewer Conditions

Pressure 30.00 in
Visibility 10.0 miles
Clouds Clear
Heat Index 81 °F
Dew Point 73 °F
Humidity 83%
Rainfall 0.00 in
Snow Depth Not available.
UV 0 out of 12
Pollen 6.60 out of 12
Air Quality Not available.
Flu Activity Not available.
METAR KMRH 210058Z AUTO 24004KT 10SM CLR 27/24 A2999 RMK AO2 SLP157 T02720239 TSNO

More Conditions Fewer Conditions

10-Day Weather Forecast

Almanac

Astronomy

Aug. 20, 2014 Rise Set
Actual Time 6:31 AM EDT 7:49 PM EDT
Civil Twilight 6:04 AM EDT 8:15 PM EDT
Nautical Twilight 5:33 AM EDT 8:46 PM EDT
Astronomical Twilight 5:00 AM EDT 9:19 PM EDT
Moon 2:13 AM EDT (8/20) 4:28 PM EDT (8/20)
Length of Visible Light 14h 10m
Length of Day
13h 17m
Tomorrow will be 1m 58s shorter.
Waning Crescent, 18% of the Moon is Illuminated
Today
Waning Crescent
Aug 25
New
Sep 2
First Quarter
Sep 8
Full
Sep 15
Last Quarter

Today's Extremes

State Highs State Lows

Community

WunderPhotos

Upload Photos

1,745,840 photos uploaded!

WunderBlogs® & News

Nearby

Snow Depth

Station Depth Elevation
No new snow has been reported.

Earthquake Activity

City Distance Mag. Time & Date
No recent earthquake activity has been reported nearby.
Minimum magnitude displayed is 2.5.

Coastal Water Temperatures

Place Temperature
Beaufort, NC 82.0 °F
Johnny Mercer Pier, Wrightsville Beach, NC 84.0 °F
Hatteras, NC 82.0 °F
Oregon Inlet Marina, NC 82.9 °F

Nearby Weather Stations